createdAt,value
2022-10-31T00:00:54.300Z,11.13
2022-10-31T00:03:41.032Z,10.67
2022-10-31T00:06:27.878Z,10.20
2022-10-31T00:09:14.900Z,10.73
2022-10-31T00:12:01.559Z,10.27
2022-10-31T00:14:49.008Z,10.20
2022-10-31T00:17:38.309Z,10.77
2022-10-31T00:20:24.772Z,11.60
2022-10-31T00:23:12.703Z,10.03
2022-10-31T00:26:03.034Z,11.50
2022-10-31T00:28:50.199Z,11.53
2022-10-31T00:31:36.973Z,11.97
2022-10-31T00:34:24.948Z,11.67
2022-10-31T00:37:12.109Z,11.07
2022-10-31T00:39:59.008Z,10.77
2022-10-31T00:42:45.821Z,11.10
2022-10-31T00:45:32.582Z,10.63
2022-10-31T00:48:19.478Z,10.70
2022-10-31T00:51:08.033Z,10.97
2022-10-31T00:53:54.958Z,10.80
2022-10-31T00:56:41.629Z,10.63
2022-10-31T00:59:28.474Z,10.47
2022-10-31T01:02:16.142Z,9.57
2022-10-31T01:05:02.935Z,10.40
2022-10-31T01:07:51.271Z,9.53
2022-10-31T01:10:38.061Z,10.20
2022-10-31T01:13:24.515Z,9.10
2022-10-31T01:16:14.479Z,10.37
2022-10-31T01:19:01.155Z,9.03
2022-10-31T01:21:47.855Z,8.40
2022-10-31T01:24:36.282Z,8.07
2022-10-31T01:27:23.006Z,8.13
2022-10-31T01:30:10.671Z,7.27
2022-10-31T01:32:57.218Z,7.07
2022-10-31T01:35:45.646Z,7.63
2022-10-31T01:38:35.295Z,6.93
2022-10-31T01:41:27.779Z,6.83
2022-10-31T01:44:51.879Z,7.07
2022-10-31T01:47:45.643Z,7.37
2022-10-31T01:50:37.277Z,7.37
2022-10-31T01:53:27.273Z,7.70
2022-10-31T01:56:17.080Z,8.23
2022-10-31T01:59:10.080Z,8.93
2022-10-31T02:01:56.591Z,7.80
2022-10-31T02:04:43.995Z,8.40
2022-10-31T02:07:38.848Z,8.00
2022-10-31T02:10:26.738Z,8.57
2022-10-31T02:13:15.168Z,7.97
2022-10-31T02:16:11.491Z,7.67
2022-10-31T02:18:59.016Z,8.60
2022-10-31T02:21:53.564Z,7.80
2022-10-31T02:24:48.520Z,9.77
2022-10-31T02:28:08.811Z,8.53
2022-10-31T02:31:08.104Z,9.43
2022-10-31T02:34:00.437Z,8.47
2022-10-31T02:36:58.476Z,8.97
2022-10-31T02:39:53.791Z,7.70
2022-10-31T02:42:54.930Z,8.73
2022-10-31T02:45:49.319Z,9.10
2022-10-31T02:48:42.048Z,9.23
2022-10-31T02:51:29.488Z,9.13
2022-10-31T02:54:21.934Z,9.37
2022-10-31T02:57:10.636Z,9.13
2022-10-31T03:00:02.780Z,9.10
2022-10-31T03:03:03.713Z,8.83
2022-10-31T03:06:00.974Z,9.30
2022-10-31T03:08:56.030Z,10.83
2022-10-31T03:11:48.962Z,11.37
2022-10-31T03:14:43.317Z,12.90
2022-10-31T03:17:36.462Z,11.93
2022-10-31T03:20:28.506Z,10.40
2022-10-31T03:23:19.767Z,11.60
2022-10-31T03:26:13.602Z,11.20
2022-10-31T03:29:05.161Z,11.50
2022-10-31T03:31:58.019Z,10.87
2022-10-31T03:34:47.804Z,10.70
2022-10-31T03:37:41.694Z,9.53
2022-10-31T03:40:37.247Z,10.47
2022-10-31T03:43:30.716Z,10.07
2022-10-31T03:46:17.594Z,10.67
2022-10-31T03:49:05.360Z,9.83
2022-10-31T03:52:00.307Z,10.23
2022-10-31T03:54:48.584Z,10.03
2022-10-31T03:57:41.533Z,10.23
2022-10-31T04:00:32.812Z,10.93
2022-10-31T04:03:23.627Z,10.53
2022-10-31T04:06:16.372Z,11.50
2022-10-31T04:09:06.870Z,11.50
2022-10-31T04:11:58.678Z,11.03
2022-10-31T04:14:59.754Z,11.50
2022-10-31T04:17:49.712Z,11.33
2022-10-31T04:20:40.818Z,11.13
2022-10-31T04:23:29.098Z,11.53
2022-10-31T04:26:16.003Z,11.67
2022-10-31T04:29:04.879Z,11.30
2022-10-31T04:31:53.071Z,10.77
2022-10-31T04:34:39.820Z,12.30
2022-10-31T04:37:26.553Z,11.67
2022-10-31T04:40:13.695Z,11.20
2022-10-31T04:43:06.449Z,10.40
2022-10-31T04:45:53.277Z,10.90
2022-10-31T04:48:42.570Z,11.03
2022-10-31T04:51:29.312Z,10.60
2022-10-31T04:54:16.185Z,10.00
2022-10-31T04:57:14.782Z,10.63
2022-10-31T05:00:02.969Z,12.43
2022-10-31T05:02:51.115Z,12.70
2022-10-31T05:05:38.972Z,11.63
2022-10-31T05:08:26.207Z,12.77
2022-10-31T05:11:14.187Z,11.47
2022-10-31T05:14:00.798Z,12.10
2022-10-31T05:17:17.032Z,12.27
2022-10-31T05:20:35.649Z,12.40
2022-10-31T05:23:33.971Z,11.73
2022-10-31T05:26:20.697Z,12.97
2022-10-31T05:29:07.970Z,12.50
2022-10-31T05:31:55.907Z,11.97
2022-10-31T05:35:06.181Z,11.83
2022-10-31T05:38:13.043Z,10.90
2022-10-31T05:41:02.242Z,11.43
2022-10-31T05:43:52.207Z,11.50
2022-10-31T05:46:44.647Z,10.87
2022-10-31T05:49:50.299Z,11.03
2022-10-31T05:52:57.870Z,11.70
2022-10-31T05:55:50.426Z,10.97
2022-10-31T05:58:41.043Z,11.23
2022-10-31T06:01:28.424Z,11.63
2022-10-31T06:04:17.244Z,11.83
2022-10-31T06:07:04.049Z,11.77
2022-10-31T06:09:50.695Z,11.33
2022-10-31T06:12:41.739Z,12.17
2022-10-31T06:15:48.999Z,11.80
2022-10-31T06:18:38.251Z,10.47
2022-10-31T06:21:25.364Z,11.40
2022-10-31T06:24:11.792Z,11.40
2022-10-31T06:27:25.205Z,12.27
2022-10-31T06:30:12.898Z,10.70
2022-10-31T06:33:05.817Z,10.80
2022-10-31T06:35:55.769Z,11.60
2022-10-31T06:38:42.552Z,11.97
2022-10-31T06:41:30.313Z,11.47
2022-10-31T06:44:17.087Z,12.20
2022-10-31T06:47:19.350Z,13.47
2022-10-31T06:50:17.657Z,12.57
2022-10-31T06:53:07.772Z,11.57
2022-10-31T06:55:54.264Z,11.43
2022-10-31T06:58:42.948Z,11.63
2022-10-31T07:01:31.941Z,12.07
2022-10-31T07:04:20.257Z,12.73
2022-10-31T07:07:09.320Z,11.60
2022-10-31T07:09:58.071Z,11.00
2022-10-31T07:13:03.456Z,13.60
2022-10-31T07:15:52.696Z,12.20
2022-10-31T07:18:39.480Z,12.63
2022-10-31T07:21:26.187Z,14.73
2022-10-31T07:24:14.249Z,15.80
2022-10-31T07:27:03.689Z,17.23
2022-10-31T07:29:50.469Z,13.07
2022-10-31T07:32:41.331Z,12.40
2022-10-31T07:35:30.244Z,11.80
2022-10-31T07:38:18.507Z,12.57
2022-10-31T07:41:06.890Z,11.53
2022-10-31T07:43:59.046Z,11.57
2022-10-31T07:47:15.369Z,12.37
2022-10-31T07:50:23.135Z,12.17
2022-10-31T07:53:42.212Z,12.23
2022-10-31T07:56:43.693Z,11.93
2022-10-31T07:59:30.389Z,12.43
2022-10-31T08:02:17.065Z,13.47
2022-10-31T08:05:30.034Z,13.50
2022-10-31T08:08:46.709Z,11.93
2022-10-31T08:11:33.433Z,12.60
2022-10-31T08:14:23.457Z,11.77
2022-10-31T08:17:12.198Z,12.13
2022-10-31T08:20:10.205Z,13.33
2022-10-31T08:23:06.467Z,12.90
2022-10-31T08:25:55.102Z,12.27
2022-10-31T08:28:43.546Z,12.33
2022-10-31T08:31:33.974Z,12.80
2022-10-31T08:34:41.161Z,13.70
2022-10-31T08:37:46.349Z,12.93
2022-10-31T08:40:36.159Z,12.67
2022-10-31T08:43:23.156Z,13.80
2022-10-31T08:46:10.676Z,14.40
2022-10-31T08:49:00.890Z,13.07
2022-10-31T08:51:49.949Z,13.63
2022-10-31T08:54:36.967Z,13.87
2022-10-31T08:57:42.932Z,12.83
2022-10-31T09:00:31.422Z,13.80
2022-10-31T09:03:24.131Z,13.57
2022-10-31T09:06:12.184Z,12.03
2022-10-31T09:08:59.713Z,13.70
2022-10-31T09:11:46.515Z,13.03
2022-10-31T09:14:51.838Z,13.23
2022-10-31T09:17:48.707Z,11.73
2022-10-31T09:20:43.576Z,12.20
2022-10-31T09:23:33.051Z,12.30
2022-10-31T09:26:20.638Z,11.87
2022-10-31T09:29:16.394Z,14.40
2022-10-31T09:32:04.169Z,13.60
2022-10-31T09:34:54.057Z,13.13
2022-10-31T09:37:40.861Z,13.20
2022-10-31T09:40:34.880Z,13.60
2022-10-31T09:43:28.258Z,12.87
2022-10-31T09:46:23.695Z,12.97
2022-10-31T09:49:52.384Z,15.13
2022-10-31T09:52:41.933Z,13.90
2022-10-31T09:55:37.191Z,13.27
2022-10-31T09:58:28.590Z,14.13
2022-10-31T10:01:35.405Z,13.80
2022-10-31T10:04:39.411Z,13.60
2022-10-31T10:07:43.979Z,14.33
2022-10-31T10:10:57.289Z,13.63
2022-10-31T10:13:59.876Z,14.17
2022-10-31T10:17:02.993Z,14.27
2022-10-31T10:20:05.982Z,13.40
2022-10-31T10:23:04.539Z,13.80
2022-10-31T10:26:00.146Z,16.13
2022-10-31T10:28:49.794Z,15.77
2022-10-31T10:31:42.619Z,14.43
2022-10-31T10:34:34.631Z,14.30
2022-10-31T10:37:29.012Z,14.13
2022-10-31T10:40:18.967Z,13.40
2022-10-31T10:43:32.912Z,13.77
2022-10-31T10:46:38.744Z,13.33
2022-10-31T10:49:32.171Z,14.07
2022-10-31T10:52:50.560Z,13.57
2022-10-31T10:55:44.920Z,13.43
2022-10-31T10:58:32.907Z,13.00
2022-10-31T11:01:19.471Z,13.97
2022-10-31T11:04:26.139Z,14.33
2022-10-31T11:07:13.849Z,12.43
2022-10-31T11:10:06.097Z,12.43
2022-10-31T11:13:24.398Z,12.80
2022-10-31T11:16:15.104Z,12.90
2022-10-31T11:19:15.828Z,12.80
2022-10-31T11:22:08.147Z,12.33
2022-10-31T11:24:54.623Z,12.70
2022-10-31T11:27:41.358Z,12.83
2022-10-31T11:30:28.554Z,12.40
2022-10-31T11:33:22.841Z,12.73
2022-10-31T11:36:18.487Z,11.53
2022-10-31T11:39:07.834Z,13.57
2022-10-31T11:41:56.357Z,13.33
2022-10-31T11:44:46.477Z,12.83
2022-10-31T11:47:34.442Z,12.20
2022-10-31T11:50:25.318Z,11.93
2022-10-31T11:53:17.204Z,12.30
2022-10-31T11:56:07.578Z,11.87
2022-10-31T11:58:58.622Z,11.27
2022-10-31T12:01:50.119Z,12.43
2022-10-31T12:04:44.161Z,11.70
2022-10-31T12:07:32.467Z,12.30
2022-10-31T12:10:26.875Z,12.70
2022-10-31T12:13:35.341Z,11.67
2022-10-31T12:16:29.143Z,11.13
2022-10-31T12:19:27.361Z,12.63
2022-10-31T12:22:22.592Z,11.83
2022-10-31T12:25:24.094Z,12.80
2022-10-31T12:28:26.389Z,12.43
2022-10-31T12:31:29.494Z,11.77
2022-10-31T12:34:48.651Z,13.13
2022-10-31T12:37:53.205Z,10.50
2022-10-31T12:41:04.187Z,12.53
2022-10-31T12:43:59.395Z,15.37
2022-10-31T12:47:00.958Z,13.43
2022-10-31T12:49:56.488Z,14.73
2022-10-31T12:52:58.676Z,13.13
2022-10-31T12:56:04.184Z,13.30
2022-10-31T12:58:57.621Z,13.63
2022-10-31T13:01:51.559Z,14.47
2022-10-31T13:04:45.661Z,14.40
2022-10-31T13:07:38.409Z,13.93
2022-10-31T13:10:29.105Z,13.03
2022-10-31T13:13:20.538Z,13.87
2022-10-31T13:16:13.734Z,13.43
2022-10-31T13:19:06.719Z,14.80
2022-10-31T13:22:02.142Z,13.73
2022-10-31T13:24:55.654Z,15.00
2022-10-31T13:27:49.485Z,15.60
2022-10-31T13:30:42.048Z,13.23
2022-10-31T13:33:34.080Z,13.27
2022-10-31T13:36:28.366Z,12.23
2022-10-31T13:39:25.561Z,12.77
2022-10-31T13:42:20.565Z,13.80
2022-10-31T13:45:22.533Z,12.17
2022-10-31T13:48:35.855Z,11.67
2022-10-31T13:51:33.399Z,12.63
2022-10-31T13:54:24.382Z,14.60
2022-10-31T13:57:19.250Z,12.23
2022-10-31T14:00:09.406Z,12.63
2022-10-31T14:03:00.037Z,12.97
2022-10-31T14:05:55.507Z,12.80
2022-10-31T14:08:49.075Z,12.50
2022-10-31T14:11:37.166Z,12.13
2022-10-31T14:14:28.905Z,12.57
2022-10-31T14:17:25.809Z,13.47
2022-10-31T14:20:41.045Z,13.70
2022-10-31T14:23:37.433Z,15.13
2022-10-31T14:26:34.715Z,14.03
2022-10-31T14:29:29.937Z,14.63
2022-10-31T14:32:24.248Z,13.17
2022-10-31T14:35:21.250Z,13.90
2022-10-31T14:38:27.832Z,12.53
2022-10-31T14:41:46.921Z,13.13
2022-10-31T14:45:03.685Z,13.60
2022-10-31T14:48:06.973Z,12.23
2022-10-31T14:50:56.402Z,11.50
2022-10-31T14:53:49.556Z,12.50
2022-10-31T14:56:39.632Z,11.77
2022-10-31T14:59:31.467Z,12.30
2022-10-31T15:02:25.261Z,12.10
2022-10-31T15:05:13.817Z,12.27
2022-10-31T15:08:01.041Z,11.50
2022-10-31T15:10:48.251Z,12.67
2022-10-31T15:13:34.902Z,12.13
2022-10-31T15:16:25.228Z,11.43
2022-10-31T15:19:16.757Z,11.83
2022-10-31T15:22:03.350Z,11.33
2022-10-31T15:24:57.045Z,10.70
2022-10-31T15:27:43.593Z,11.20
2022-10-31T15:30:32.441Z,12.77
2022-10-31T15:33:25.948Z,13.27
2022-10-31T15:36:24.018Z,13.50
2022-10-31T15:39:14.093Z,14.13
2022-10-31T15:42:01.763Z,12.47
2022-10-31T15:44:51.952Z,14.00
2022-10-31T15:47:39.381Z,13.83
2022-10-31T15:50:32.209Z,14.20
2022-10-31T15:53:21.913Z,14.00
2022-10-31T15:56:10.857Z,13.70
2022-10-31T15:59:00.251Z,12.50
2022-10-31T16:02:02.827Z,13.20
2022-10-31T16:04:52.149Z,14.30
2022-10-31T16:07:50.835Z,14.67
2022-10-31T16:10:37.874Z,16.60
2022-10-31T16:13:28.872Z,15.13
2022-10-31T16:16:35.527Z,16.50
2022-10-31T16:19:25.054Z,16.23
2022-10-31T16:22:14.240Z,16.27
2022-10-31T16:25:07.110Z,15.73
2022-10-31T16:27:56.916Z,15.37
2022-10-31T16:30:48.388Z,16.60
2022-10-31T16:33:37.897Z,14.97
2022-10-31T16:36:35.890Z,16.37
2022-10-31T16:39:23.302Z,16.73
2022-10-31T16:42:12.056Z,16.63
2022-10-31T16:44:59.408Z,16.33
2022-10-31T16:47:46.275Z,17.43
2022-10-31T16:50:33.075Z,19.73
2022-10-31T16:53:19.839Z,20.10
2022-10-31T16:56:07.204Z,22.80
2022-10-31T16:58:55.518Z,26.13
2022-10-31T17:01:45.455Z,20.83
2022-10-31T17:04:32.145Z,21.83
2022-10-31T17:07:18.659Z,21.33
2022-10-31T17:10:06.129Z,21.37
2022-10-31T17:12:53.003Z,23.40
2022-10-31T17:15:45.195Z,25.17
2022-10-31T17:18:32.621Z,23.43
2022-10-31T17:21:23.227Z,22.30
2022-10-31T17:24:13.427Z,22.03
2022-10-31T17:26:59.937Z,21.87
2022-10-31T17:29:47.163Z,22.80
2022-10-31T17:32:34.944Z,23.27
2022-10-31T17:35:21.847Z,22.40
2022-10-31T17:38:08.771Z,23.23
2022-10-31T17:40:55.489Z,24.20
2022-10-31T17:43:42.443Z,22.13
2022-10-31T17:46:29.422Z,23.57
2022-10-31T17:49:17.317Z,23.07
2022-10-31T17:52:04.149Z,36.30
2022-10-31T17:54:51.078Z,37.50
2022-10-31T17:57:42.817Z,39.33
2022-10-31T18:00:31.393Z,40.70
2022-10-31T18:03:21.193Z,26.77
2022-10-31T18:06:11.174Z,38.43
2022-10-31T18:09:03.936Z,36.57
2022-10-31T18:11:59.335Z,28.13
2022-10-31T18:14:48.619Z,30.17
2022-10-31T18:17:38.074Z,41.63
2022-10-31T18:20:28.064Z,27.23
2022-10-31T18:23:16.218Z,29.30
2022-10-31T18:26:03.050Z,25.63
2022-10-31T18:28:49.766Z,24.17
2022-10-31T18:31:37.065Z,33.33
2022-10-31T18:34:27.396Z,30.43
2022-10-31T18:37:15.496Z,42.27
2022-10-31T18:40:04.735Z,37.47
2022-10-31T18:42:51.381Z,33.37
2022-10-31T18:45:47.238Z,38.40
2022-10-31T18:48:43.089Z,32.97
2022-10-31T18:51:31.594Z,34.70
2022-10-31T18:54:20.175Z,37.43
2022-10-31T18:57:10.899Z,31.50
2022-10-31T19:00:01.850Z,35.33
2022-10-31T19:02:49.922Z,32.47
2022-10-31T19:05:37.133Z,29.43
2022-10-31T19:08:25.949Z,27.87
2022-10-31T19:11:16.369Z,25.77
2022-10-31T19:14:04.456Z,24.67
2022-10-31T19:16:52.505Z,25.90
2022-10-31T19:19:39.575Z,33.77
2022-10-31T19:22:26.322Z,26.70
2022-10-31T19:25:13.179Z,24.10
2022-10-31T19:28:00.368Z,24.83
2022-10-31T19:30:55.388Z,23.57
2022-10-31T19:33:42.028Z,22.50
2022-10-31T19:36:29.695Z,22.97
2022-10-31T19:39:16.249Z,23.30
2022-10-31T19:42:02.974Z,21.30
2022-10-31T19:44:51.818Z,23.27
2022-10-31T19:47:41.880Z,22.40
2022-10-31T19:50:30.495Z,22.10
2022-10-31T19:53:17.711Z,23.90
2022-10-31T19:56:05.047Z,21.87
2022-10-31T19:58:53.417Z,21.43
2022-10-31T20:01:43.104Z,21.37
2022-10-31T20:04:34.580Z,23.67
2022-10-31T20:07:24.125Z,23.97
2022-10-31T20:10:12.611Z,22.83
2022-10-31T20:13:01.923Z,24.30
2022-10-31T20:15:50.575Z,22.03
2022-10-31T20:18:38.295Z,23.53
2022-10-31T20:21:28.731Z,24.47
2022-10-31T20:24:15.598Z,23.83
2022-10-31T20:27:03.232Z,23.07
2022-10-31T20:29:49.763Z,24.50
2022-10-31T20:32:37.355Z,25.27
2022-10-31T20:35:23.985Z,23.20
2022-10-31T20:38:12.237Z,21.63
2022-10-31T20:41:01.565Z,20.93
2022-10-31T20:43:48.751Z,20.07
2022-10-31T20:46:35.443Z,21.73
2022-10-31T20:49:22.230Z,23.00
2022-10-31T20:52:08.795Z,22.53
2022-10-31T20:54:56.877Z,22.07
2022-10-31T20:57:44.066Z,22.40
2022-10-31T21:00:30.873Z,21.67
2022-10-31T21:03:17.690Z,24.73
2022-10-31T21:06:05.906Z,25.30
2022-10-31T21:08:53.936Z,23.70
2022-10-31T21:11:41.873Z,26.13
2022-10-31T21:14:28.741Z,25.50
2022-10-31T21:17:15.643Z,23.30
2022-10-31T21:20:02.470Z,23.13
2022-10-31T21:22:49.142Z,22.83
2022-10-31T21:25:39.279Z,22.57
2022-10-31T21:28:27.241Z,25.17
2022-10-31T21:31:16.500Z,21.83
2022-10-31T21:34:04.006Z,23.17
2022-10-31T21:36:50.428Z,21.87
2022-10-31T21:39:38.669Z,22.43
2022-10-31T21:42:25.867Z,21.43
2022-10-31T21:45:14.107Z,22.67
2022-10-31T21:48:01.074Z,19.43
2022-10-31T21:50:48.855Z,21.33
2022-10-31T21:53:53.574Z,22.80
2022-10-31T21:56:40.242Z,22.93
2022-10-31T21:59:27.267Z,21.27
2022-10-31T22:02:16.646Z,22.47
2022-10-31T22:05:03.118Z,21.17
2022-10-31T22:07:49.773Z,21.77
2022-10-31T22:10:36.613Z,21.63
2022-10-31T22:13:23.905Z,23.33
2022-10-31T22:16:13.452Z,23.43
2022-10-31T22:19:05.474Z,21.33
2022-10-31T22:21:52.689Z,22.60
2022-10-31T22:24:40.524Z,23.17
2022-10-31T22:27:29.037Z,22.30
2022-10-31T22:30:15.681Z,25.40
2022-10-31T22:33:02.873Z,22.23
2022-10-31T22:35:51.223Z,23.47
2022-10-31T22:38:40.517Z,24.30
2022-10-31T22:41:29.567Z,27.40
2022-10-31T22:44:16.307Z,24.53
2022-10-31T22:47:03.240Z,27.63
2022-10-31T22:49:50.133Z,23.40
2022-10-31T22:52:38.292Z,26.83
2022-10-31T22:55:24.948Z,24.03
2022-10-31T22:58:11.959Z,25.83
2022-10-31T23:00:58.865Z,22.63
2022-10-31T23:03:45.611Z,27.23
2022-10-31T23:06:34.148Z,27.20
2022-10-31T23:09:22.156Z,25.67
2022-10-31T23:12:22.993Z,24.53
2022-10-31T23:15:10.440Z,23.37
2022-10-31T23:17:58.364Z,24.53
2022-10-31T23:20:51.265Z,23.53
2022-10-31T23:23:41.924Z,23.43
2022-10-31T23:26:48.934Z,23.67
2022-10-31T23:29:42.430Z,25.03
2022-10-31T23:32:31.526Z,22.40
2022-10-31T23:35:18.378Z,23.03
2022-10-31T23:38:05.030Z,24.17
2022-10-31T23:40:51.766Z,23.47
2022-10-31T23:43:39.824Z,24.10
2022-10-31T23:46:26.794Z,23.23
2022-10-31T23:49:15.699Z,23.10
2022-10-31T23:52:02.579Z,23.60
2022-10-31T23:54:49.354Z,23.73
2022-10-31T23:57:36.026Z,23.77
